sensor_id;sensor_type;location;lat;lon;timestamp;temperature;humidity
3842;DHT22;1936;47.074;15.336;2023-06-19T00:01:53;18.20;83.10
3842;DHT22;1936;47.074;15.336;2023-06-19T00:03:56;18.10;84.10
3842;DHT22;1936;47.074;15.336;2023-06-19T00:06:00;18.10;84.00
3842;DHT22;1936;47.074;15.336;2023-06-19T00:08:04;18.00;84.00
3842;DHT22;1936;47.074;15.336;2023-06-19T00:10:08;18.00;84.40
3842;DHT22;1936;47.074;15.336;2023-06-19T00:12:11;18.00;84.40
3842;DHT22;1936;47.074;15.336;2023-06-19T00:14:14;18.00;84.20
3842;DHT22;1936;47.074;15.336;2023-06-19T00:16:20;18.10;83.50
3842;DHT22;1936;47.074;15.336;2023-06-19T00:18:27;18.20;82.50
3842;DHT22;1936;47.074;15.336;2023-06-19T00:20:30;17.90;83.70
3842;DHT22;1936;47.074;15.336;2023-06-19T00:22:33;17.80;85.60
3842;DHT22;1936;47.074;15.336;2023-06-19T00:24:38;17.80;85.00
3842;DHT22;1936;47.074;15.336;2023-06-19T00:26:41;17.90;84.40
3842;DHT22;1936;47.074;15.336;2023-06-19T00:28:45;17.80;84.30
3842;DHT22;1936;47.074;15.336;2023-06-19T00:30:54;17.80;84.20
3842;DHT22;1936;47.074;15.336;2023-06-19T00:32:57;17.90;83.90
3842;DHT22;1936;47.074;15.336;2023-06-19T00:35:02;17.90;83.50
3842;DHT22;1936;47.074;15.336;2023-06-19T00:37:06;17.90;83.50
3842;DHT22;1936;47.074;15.336;2023-06-19T00:39:10;17.70;84.30
3842;DHT22;1936;47.074;15.336;2023-06-19T00:41:16;17.80;84.00
3842;DHT22;1936;47.074;15.336;2023-06-19T00:43:20;17.70;84.30
3842;DHT22;1936;47.074;15.336;2023-06-19T00:45:23;17.70;84.60
3842;DHT22;1936;47.074;15.336;2023-06-19T00:47:27;17.70;84.30
3842;DHT22;1936;47.074;15.336;2023-06-19T00:49:31;17.70;84.20
3842;DHT22;1936;47.074;15.336;2023-06-19T00:51:35;17.60;84.80
3842;DHT22;1936;47.074;15.336;2023-06-19T00:53:38;17.70;84.60
3842;DHT22;1936;47.074;15.336;2023-06-19T00:55:42;17.60;85.60
3842;DHT22;1936;47.074;15.336;2023-06-19T00:57:48;17.50;85.80
3842;DHT22;1936;47.074;15.336;2023-06-19T00:59:52;17.60;85.40
3842;DHT22;1936;47.074;15.336;2023-06-19T01:01:56;17.50;85.50
3842;DHT22;1936;47.074;15.336;2023-06-19T01:03:59;17.50;85.70
3842;DHT22;1936;47.074;15.336;2023-06-19T01:06:07;17.50;85.90
3842;DHT22;1936;47.074;15.336;2023-06-19T01:08:25;17.40;85.50
3842;DHT22;1936;47.074;15.336;2023-06-19T01:10:38;17.30;86.30
3842;DHT22;1936;47.074;15.336;2023-06-19T01:12:49;17.40;86.00
3842;DHT22;1936;47.074;15.336;2023-06-19T01:14:58;17.30;86.00
3842;DHT22;1936;47.074;15.336;2023-06-19T01:17:03;17.10;86.70
3842;DHT22;1936;47.074;15.336;2023-06-19T01:19:09;17.20;86.40
3842;DHT22;1936;47.074;15.336;2023-06-19T01:21:14;17.10;86.70
3842;DHT22;1936;47.074;15.336;2023-06-19T01:23:19;17.10;87.30
3842;DHT22;1936;47.074;15.336;2023-06-19T01:25:23;17.00;87.70
3842;DHT22;1936;47.074;15.336;2023-06-19T01:27:27;17.00;87.30
3842;DHT22;1936;47.074;15.336;2023-06-19T01:29:31;17.00;87.20
3842;DHT22;1936;47.074;15.336;2023-06-19T01:31:38;17.00;87.10
3842;DHT22;1936;47.074;15.336;2023-06-19T01:33:45;16.90;88.00
3842;DHT22;1936;47.074;15.336;2023-06-19T01:35:49;16.80;88.50
3842;DHT22;1936;47.074;15.336;2023-06-19T01:37:53;16.80;88.10
3842;DHT22;1936;47.074;15.336;2023-06-19T01:39:59;16.80;87.80
3842;DHT22;1936;47.074;15.336;2023-06-19T01:42:06;16.90;87.10
3842;DHT22;1936;47.074;15.336;2023-06-19T01:44:11;16.70;87.00
3842;DHT22;1936;47.074;15.336;2023-06-19T01:46:14;16.60;87.80
3842;DHT22;1936;47.074;15.336;2023-06-19T01:48:18;16.60;87.90
3842;DHT22;1936;47.074;15.336;2023-06-19T01:50:22;16.60;88.00
3842;DHT22;1936;47.074;15.336;2023-06-19T01:52:26;16.50;88.20
3842;DHT22;1936;47.074;15.336;2023-06-19T01:54:29;16.50;88.50
3842;DHT22;1936;47.074;15.336;2023-06-19T01:56:34;16.40;89.10
3842;DHT22;1936;47.074;15.336;2023-06-19T01:58:38;16.40;89.00
3842;DHT22;1936;47.074;15.336;2023-06-19T02:00:41;16.30;88.90
3842;DHT22;1936;47.074;15.336;2023-06-19T02:02:45;16.40;89.00
3842;DHT22;1936;47.074;15.336;2023-06-19T02:04:48;16.40;88.10
3842;DHT22;1936;47.074;15.336;2023-06-19T02:06:52;16.40;88.10
3842;DHT22;1936;47.074;15.336;2023-06-19T02:08:55;16.40;87.70
3842;DHT22;1936;47.074;15.336;2023-06-19T02:10:59;16.30;88.40
3842;DHT22;1936;47.074;15.336;2023-06-19T02:13:03;16.20;88.40
3842;DHT22;1936;47.074;15.336;2023-06-19T02:15:08;16.30;88.30
3842;DHT22;1936;47.074;15.336;2023-06-19T02:17:11;16.30;88.20
3842;DHT22;1936;47.074;15.336;2023-06-19T02:19:14;16.30;88.50
3842;DHT22;1936;47.074;15.336;2023-06-19T02:21:18;16.30;88.90
3842;DHT22;1936;47.074;15.336;2023-06-19T02:23:21;16.20;88.70
3842;DHT22;1936;47.074;15.336;2023-06-19T02:25:24;16.40;88.20
3842;DHT22;1936;47.074;15.336;2023-06-19T02:27:28;16.40;87.70
3842;DHT22;1936;47.074;15.336;2023-06-19T02:29:32;16.30;87.90
3842;DHT22;1936;47.074;15.336;2023-06-19T02:31:36;16.20;88.40
3842;DHT22;1936;47.074;15.336;2023-06-19T02:33:39;16.10;89.40
3842;DHT22;1936;47.074;15.336;2023-06-19T02:35:42;16.20;89.10
3842;DHT22;1936;47.074;15.336;2023-06-19T02:37:46;16.20;89.40
3842;DHT22;1936;47.074;15.336;2023-06-19T02:39:50;16.00;90.10
3842;DHT22;1936;47.074;15.336;2023-06-19T02:41:53;16.10;89.70
3842;DHT22;1936;47.074;15.336;2023-06-19T02:43:56;16.10;90.00
3842;DHT22;1936;47.074;15.336;2023-06-19T02:46:01;16.10;89.50
3842;DHT22;1936;47.074;15.336;2023-06-19T02:48:04;16.10;89.60
3842;DHT22;1936;47.074;15.336;2023-06-19T02:50:08;16.10;89.50
3842;DHT22;1936;47.074;15.336;2023-06-19T02:52:12;16.00;89.80
3842;DHT22;1936;47.074;15.336;2023-06-19T02:54:15;16.10;89.20
3842;DHT22;1936;47.074;15.336;2023-06-19T02:56:18;16.00;89.50
3842;DHT22;1936;47.074;15.336;2023-06-19T02:58:22;15.90;89.40
3842;DHT22;1936;47.074;15.336;2023-06-19T03:00:25;15.90;89.20
3842;DHT22;1936;47.074;15.336;2023-06-19T03:02:31;15.90;89.30
3842;DHT22;1936;47.074;15.336;2023-06-19T03:04:35;16.00;89.10
3842;DHT22;1936;47.074;15.336;2023-06-19T03:06:39;15.90;89.10
3842;DHT22;1936;47.074;15.336;2023-06-19T03:08:42;16.00;89.00
3842;DHT22;1936;47.074;15.336;2023-06-19T03:10:46;15.90;89.50
3842;DHT22;1936;47.074;15.336;2023-06-19T03:12:49;15.90;89.10
3842;DHT22;1936;47.074;15.336;2023-06-19T03:14:52;15.80;89.30
3842;DHT22;1936;47.074;15.336;2023-06-19T03:16:56;15.80;89.60
3842;DHT22;1936;47.074;15.336;2023-06-19T03:19:01;15.80;89.80
3842;DHT22;1936;47.074;15.336;2023-06-19T03:21:04;15.80;90.10
3842;DHT22;1936;47.074;15.336;2023-06-19T03:23:07;15.90;89.50
3842;DHT22;1936;47.074;15.336;2023-06-19T03:25:11;16.00;88.70
3842;DHT22;1936;47.074;15.336;2023-06-19T03:27:14;16.00;88.50
3842;DHT22;1936;47.074;15.336;2023-06-19T03:29:17;15.90;89.00
3842;DHT22;1936;47.074;15.336;2023-06-19T03:31:20;15.90;89.00
3842;DHT22;1936;47.074;15.336;2023-06-19T03:33:24;15.80;89.50
3842;DHT22;1936;47.074;15.336;2023-06-19T03:35:29;15.80;90.10
3842;DHT22;1936;47.074;15.336;2023-06-19T03:37:32;15.80;90.20
3842;DHT22;1936;47.074;15.336;2023-06-19T03:39:35;15.90;90.00
3842;DHT22;1936;47.074;15.336;2023-06-19T03:41:39;15.90;90.00
3842;DHT22;1936;47.074;15.336;2023-06-19T03:43:42;16.00;89.60
3842;DHT22;1936;47.074;15.336;2023-06-19T03:45:45;16.00;89.40
3842;DHT22;1936;47.074;15.336;2023-06-19T03:47:48;16.00;90.10
3842;DHT22;1936;47.074;15.336;2023-06-19T03:49:52;16.10;89.20
3842;DHT22;1936;47.074;15.336;2023-06-19T03:51:58;16.10;89.50
3842;DHT22;1936;47.074;15.336;2023-06-19T03:54:01;16.20;89.60
3842;DHT22;1936;47.074;15.336;2023-06-19T03:56:05;16.20;89.60
3842;DHT22;1936;47.074;15.336;2023-06-19T03:58:08;16.10;90.00
3842;DHT22;1936;47.074;15.336;2023-06-19T04:00:14;16.20;90.00
3842;DHT22;1936;47.074;15.336;2023-06-19T04:02:18;16.20;90.20
3842;DHT22;1936;47.074;15.336;2023-06-19T04:04:22;16.20;90.10
3842;DHT22;1936;47.074;15.336;2023-06-19T04:06:25;16.20;90.10
3842;DHT22;1936;47.074;15.336;2023-06-19T04:08:29;16.30;90.20
3842;DHT22;1936;47.074;15.336;2023-06-19T04:10:33;16.30;90.10
3842;DHT22;1936;47.074;15.336;2023-06-19T04:12:37;16.50;89.60
3842;DHT22;1936;47.074;15.336;2023-06-19T04:14:41;16.50;89.80
3842;DHT22;1936;47.074;15.336;2023-06-19T04:16:44;16.60;89.50
3842;DHT22;1936;47.074;15.336;2023-06-19T04:18:48;16.70;89.90
3842;DHT22;1936;47.074;15.336;2023-06-19T04:20:51;16.70;90.30
3842;DHT22;1936;47.074;15.336;2023-06-19T04:22:54;16.80;89.90
3842;DHT22;1936;47.074;15.336;2023-06-19T04:24:59;17.00;89.50
3842;DHT22;1936;47.074;15.336;2023-06-19T04:27:02;17.20;89.20
3842;DHT22;1936;47.074;15.336;2023-06-19T04:29:06;17.30;88.60
3842;DHT22;1936;47.074;15.336;2023-06-19T04:31:09;17.20;88.90
3842;DHT22;1936;47.074;15.336;2023-06-19T04:33:12;17.20;90.10
3842;DHT22;1936;47.074;15.336;2023-06-19T04:35:16;17.40;87.50
3842;DHT22;1936;47.074;15.336;2023-06-19T04:37:20;17.50;87.60
3842;DHT22;1936;47.074;15.336;2023-06-19T04:39:23;17.70;86.80
3842;DHT22;1936;47.074;15.336;2023-06-19T04:41:28;17.60;86.90
3842;DHT22;1936;47.074;15.336;2023-06-19T04:43:31;17.90;86.10
3842;DHT22;1936;47.074;15.336;2023-06-19T04:45:35;18.00;85.50
3842;DHT22;1936;47.074;15.336;2023-06-19T04:47:38;18.10;85.70
3842;DHT22;1936;47.074;15.336;2023-06-19T04:49:54;18.20;86.60
3842;DHT22;1936;47.074;15.336;2023-06-19T04:51:57;18.30;85.70
3842;DHT22;1936;47.074;15.336;2023-06-19T04:54:01;18.50;84.40
3842;DHT22;1936;47.074;15.336;2023-06-19T04:56:04;18.70;84.10
3842;DHT22;1936;47.074;15.336;2023-06-19T04:58:09;18.80;83.50
3842;DHT22;1936;47.074;15.336;2023-06-19T05:00:13;19.00;81.10
3842;DHT22;1936;47.074;15.336;2023-06-19T05:02:20;19.20;79.60
3842;DHT22;1936;47.074;15.336;2023-06-19T05:04:25;19.30;80.10
3842;DHT22;1936;47.074;15.336;2023-06-19T05:06:29;19.40;79.40
3842;DHT22;1936;47.074;15.336;2023-06-19T05:08:32;19.50;78.10
3842;DHT22;1936;47.074;15.336;2023-06-19T05:10:36;19.50;79.80
3842;DHT22;1936;47.074;15.336;2023-06-19T05:12:39;19.80;78.20
3842;DHT22;1936;47.074;15.336;2023-06-19T05:14:43;19.90;77.80
3842;DHT22;1936;47.074;15.336;2023-06-19T05:16:47;20.10;75.10
3842;DHT22;1936;47.074;15.336;2023-06-19T05:18:50;20.20;73.90
3842;DHT22;1936;47.074;15.336;2023-06-19T05:20:54;20.30;74.90
3842;DHT22;1936;47.074;15.336;2023-06-19T05:22:57;20.30;74.30
3842;DHT22;1936;47.074;15.336;2023-06-19T05:25:00;20.40;74.80
3842;DHT22;1936;47.074;15.336;2023-06-19T05:27:05;20.50;72.60
3842;DHT22;1936;47.074;15.336;2023-06-19T05:29:08;20.50;69.50
3842;DHT22;1936;47.074;15.336;2023-06-19T05:31:14;20.50;69.70
3842;DHT22;1936;47.074;15.336;2023-06-19T05:33:17;20.70;70.60
3842;DHT22;1936;47.074;15.336;2023-06-19T05:35:21;21.00;69.40
3842;DHT22;1936;47.074;15.336;2023-06-19T05:37:24;21.00;69.30
3842;DHT22;1936;47.074;15.336;2023-06-19T05:39:29;21.00;69.00
3842;DHT22;1936;47.074;15.336;2023-06-19T05:41:32;21.00;67.00
3842;DHT22;1936;47.074;15.336;2023-06-19T05:43:35;21.10;67.20
3842;DHT22;1936;47.074;15.336;2023-06-19T05:45:40;21.20;68.00
3842;DHT22;1936;47.074;15.336;2023-06-19T05:47:45;21.30;67.50
3842;DHT22;1936;47.074;15.336;2023-06-19T05:49:48;21.30;66.90
3842;DHT22;1936;47.074;15.336;2023-06-19T05:51:51;21.30;67.50
3842;DHT22;1936;47.074;15.336;2023-06-19T05:53:55;21.30;66.00
3842;DHT22;1936;47.074;15.336;2023-06-19T05:56:03;21.60;66.70
3842;DHT22;1936;47.074;15.336;2023-06-19T05:58:07;22.00;67.00
3842;DHT22;1936;47.074;15.336;2023-06-19T06:00:11;22.10;65.20
3842;DHT22;1936;47.074;15.336;2023-06-19T06:02:17;22.30;66.50
3842;DHT22;1936;47.074;15.336;2023-06-19T06:04:22;22.60;64.80
3842;DHT22;1936;47.074;15.336;2023-06-19T06:06:25;22.70;64.80
3842;DHT22;1936;47.074;15.336;2023-06-19T06:08:29;22.70;62.80
3842;DHT22;1936;47.074;15.336;2023-06-19T06:10:33;22.60;62.80
3842;DHT22;1936;47.074;15.336;2023-06-19T06:12:36;22.70;61.60
3842;DHT22;1936;47.074;15.336;2023-06-19T06:14:40;22.60;62.20
3842;DHT22;1936;47.074;15.336;2023-06-19T06:16:44;22.80;61.10
3842;DHT22;1936;47.074;15.336;2023-06-19T06:18:47;23.10;63.80
3842;DHT22;1936;47.074;15.336;2023-06-19T06:20:52;23.30;61.20
3842;DHT22;1936;47.074;15.336;2023-06-19T06:22:55;23.70;61.00
3842;DHT22;1936;47.074;15.336;2023-06-19T06:24:58;23.90;61.80
3842;DHT22;1936;47.074;15.336;2023-06-19T06:27:02;24.10;64.30
3842;DHT22;1936;47.074;15.336;2023-06-19T06:29:05;24.30;59.80
3842;DHT22;1936;47.074;15.336;2023-06-19T06:31:09;24.50;59.30
3842;DHT22;1936;47.074;15.336;2023-06-19T06:33:12;24.80;59.10
3842;DHT22;1936;47.074;15.336;2023-06-19T06:35:15;25.20;57.70
3842;DHT22;1936;47.074;15.336;2023-06-19T06:37:20;25.00;54.50
3842;DHT22;1936;47.074;15.336;2023-06-19T06:39:24;24.90;56.70
3842;DHT22;1936;47.074;15.336;2023-06-19T06:41:27;24.70;56.30
3842;DHT22;1936;47.074;15.336;2023-06-19T06:43:31;24.90;57.40
3842;DHT22;1936;47.074;15.336;2023-06-19T06:45:34;25.00;56.30
3842;DHT22;1936;47.074;15.336;2023-06-19T06:47:39;25.20;57.50
3842;DHT22;1936;47.074;15.336;2023-06-19T06:49:43;25.60;55.80
3842;DHT22;1936;47.074;15.336;2023-06-19T06:51:46;26.10;54.90
3842;DHT22;1936;47.074;15.336;2023-06-19T06:53:51;26.10;53.40
3842;DHT22;1936;47.074;15.336;2023-06-19T06:55:55;26.20;54.60
3842;DHT22;1936;47.074;15.336;2023-06-19T06:57:58;26.70;55.10
3842;DHT22;1936;47.074;15.336;2023-06-19T07:00:06;27.10;52.70
3842;DHT22;1936;47.074;15.336;2023-06-19T07:02:11;27.20;51.40
3842;DHT22;1936;47.074;15.336;2023-06-19T07:04:15;27.50;51.90
3842;DHT22;1936;47.074;15.336;2023-06-19T07:06:18;27.60;50.30
3842;DHT22;1936;47.074;15.336;2023-06-19T07:08:25;28.10;53.30
3842;DHT22;1936;47.074;15.336;2023-06-19T07:10:30;27.90;48.50
3842;DHT22;1936;47.074;15.336;2023-06-19T07:12:33;27.60;52.10
3842;DHT22;1936;47.074;15.336;2023-06-19T07:14:37;27.70;51.00
3842;DHT22;1936;47.074;15.336;2023-06-19T07:16:40;28.30;51.20
3842;DHT22;1936;47.074;15.336;2023-06-19T07:18:43;28.90;50.30
3842;DHT22;1936;47.074;15.336;2023-06-19T07:20:47;29.00;48.30
3842;DHT22;1936;47.074;15.336;2023-06-19T07:22:51;29.40;47.70
3842;DHT22;1936;47.074;15.336;2023-06-19T07:24:55;29.30;48.60
3842;DHT22;1936;47.074;15.336;2023-06-19T07:27:00;29.60;46.90
3842;DHT22;1936;47.074;15.336;2023-06-19T07:29:03;29.70;44.70
3842;DHT22;1936;47.074;15.336;2023-06-19T07:31:06;29.90;45.00
3842;DHT22;1936;47.074;15.336;2023-06-19T07:33:10;29.50;46.60
3842;DHT22;1936;47.074;15.336;2023-06-19T07:35:13;29.80;45.60
3842;DHT22;1936;47.074;15.336;2023-06-19T07:37:16;29.70;45.50
3842;DHT22;1936;47.074;15.336;2023-06-19T07:39:20;30.00;44.60
3842;DHT22;1936;47.074;15.336;2023-06-19T07:41:23;30.00;46.60
3842;DHT22;1936;47.074;15.336;2023-06-19T07:43:28;30.70;46.80
3842;DHT22;1936;47.074;15.336;2023-06-19T07:45:31;31.20;42.30
3842;DHT22;1936;47.074;15.336;2023-06-19T07:47:35;31.30;43.00
3842;DHT22;1936;47.074;15.336;2023-06-19T07:49:38;31.90;45.60
3842;DHT22;1936;47.074;15.336;2023-06-19T07:51:42;32.60;43.80
3842;DHT22;1936;47.074;15.336;2023-06-19T07:53:46;33.20;39.10
3842;DHT22;1936;47.074;15.336;2023-06-19T07:55:50;34.30;39.20
3842;DHT22;1936;47.074;15.336;2023-06-19T07:57:54;35.20;40.50
3842;DHT22;1936;47.074;15.336;2023-06-19T08:00:00;35.80;34.40
3842;DHT22;1936;47.074;15.336;2023-06-19T08:02:08;36.20;34.50
3842;DHT22;1936;47.074;15.336;2023-06-19T08:04:12;36.60;33.90
3842;DHT22;1936;47.074;15.336;2023-06-19T08:06:15;37.80;34.60
3842;DHT22;1936;47.074;15.336;2023-06-19T08:08:19;38.40;34.70
3842;DHT22;1936;47.074;15.336;2023-06-19T08:10:22;37.50;29.20
3842;DHT22;1936;47.074;15.336;2023-06-19T08:12:26;37.20;30.50
3842;DHT22;1936;47.074;15.336;2023-06-19T08:14:29;37.70;29.60
3842;DHT22;1936;47.074;15.336;2023-06-19T08:16:35;38.10;32.00
3842;DHT22;1936;47.074;15.336;2023-06-19T08:18:38;38.60;31.50
3842;DHT22;1936;47.074;15.336;2023-06-19T08:20:41;39.00;30.20
3842;DHT22;1936;47.074;15.336;2023-06-19T08:22:44;38.70;32.00
3842;DHT22;1936;47.074;15.336;2023-06-19T08:24:48;38.40;29.90
3842;DHT22;1936;47.074;15.336;2023-06-19T08:26:52;37.60;30.20
3842;DHT22;1936;47.074;15.336;2023-06-19T08:28:55;38.10;32.00
3842;DHT22;1936;47.074;15.336;2023-06-19T08:30:58;38.30;31.70
3842;DHT22;1936;47.074;15.336;2023-06-19T08:33:03;38.20;29.40
3842;DHT22;1936;47.074;15.336;2023-06-19T08:35:07;38.30;31.90
3842;DHT22;1936;47.074;15.336;2023-06-19T08:37:10;38.50;31.90
3842;DHT22;1936;47.074;15.336;2023-06-19T08:39:14;38.70;30.70
3842;DHT22;1936;47.074;15.336;2023-06-19T08:41:18;39.40;29.40
3842;DHT22;1936;47.074;15.336;2023-06-19T08:43:21;39.90;30.20
3842;DHT22;1936;47.074;15.336;2023-06-19T08:45:26;39.30;30.10
3842;DHT22;1936;47.074;15.336;2023-06-19T08:47:30;39.80;29.60
3842;DHT22;1936;47.074;15.336;2023-06-19T08:49:36;39.30;30.00
3842;DHT22;1936;47.074;15.336;2023-06-19T08:51:40;39.60;32.20
3842;DHT22;1936;47.074;15.336;2023-06-19T08:53:47;39.00;33.30
3842;DHT22;1936;47.074;15.336;2023-06-19T08:55:52;39.00;34.30
3842;DHT22;1936;47.074;15.336;2023-06-19T08:57:55;39.50;30.60
3842;DHT22;1936;47.074;15.336;2023-06-19T08:59:59;40.10;31.80
3842;DHT22;1936;47.074;15.336;2023-06-19T09:02:02;40.80;30.00
3842;DHT22;1936;47.074;15.336;2023-06-19T09:04:10;41.60;30.80
3842;DHT22;1936;47.074;15.336;2023-06-19T09:06:17;42.00;30.40
3842;DHT22;1936;47.074;15.336;2023-06-19T09:08:22;42.00;30.30
3842;DHT22;1936;47.074;15.336;2023-06-19T09:10:26;40.70;30.50
3842;DHT22;1936;47.074;15.336;2023-06-19T09:12:29;40.60;29.30
3842;DHT22;1936;47.074;15.336;2023-06-19T09:14:33;40.70;30.80
3842;DHT22;1936;47.074;15.336;2023-06-19T09:16:38;40.80;29.30
3842;DHT22;1936;47.074;15.336;2023-06-19T09:18:46;40.50;30.60
3842;DHT22;1936;47.074;15.336;2023-06-19T09:20:52;40.00;29.70
3842;DHT22;1936;47.074;15.336;2023-06-19T09:22:58;39.60;31.40
3842;DHT22;1936;47.074;15.336;2023-06-19T09:25:02;39.40;34.80
3842;DHT22;1936;47.074;15.336;2023-06-19T09:27:09;40.10;29.00
3842;DHT22;1936;47.074;15.336;2023-06-19T09:29:16;39.70;30.40
3842;DHT22;1936;47.074;15.336;2023-06-19T09:31:31;40.00;30.10
3842;DHT22;1936;47.074;15.336;2023-06-19T09:33:37;40.40;31.60
3842;DHT22;1936;47.074;15.336;2023-06-19T09:35:40;40.30;29.80
3842;DHT22;1936;47.074;15.336;2023-06-19T09:37:45;41.00;30.10
3842;DHT22;1936;47.074;15.336;2023-06-19T09:41:56;41.30;30.20
3842;DHT22;1936;47.074;15.336;2023-06-19T09:44:02;40.90;29.30
3842;DHT22;1936;47.074;15.336;2023-06-19T09:46:14;40.40;29.60
3842;DHT22;1936;47.074;15.336;2023-06-19T09:48:22;40.60;29.90
3842;DHT22;1936;47.074;15.336;2023-06-19T09:50:27;40.60;28.30
3842;DHT22;1936;47.074;15.336;2023-06-19T09:52:32;40.00;29.90
3842;DHT22;1936;47.074;15.336;2023-06-19T09:54:36;39.60;30.50
3842;DHT22;1936;47.074;15.336;2023-06-19T09:56:42;39.80;33.80
3842;DHT22;1936;47.074;15.336;2023-06-19T09:58:46;39.30;31.50
3842;DHT22;1936;47.074;15.336;2023-06-19T10:00:50;40.10;31.00
3842;DHT22;1936;47.074;15.336;2023-06-19T10:02:53;39.80;31.80
3842;DHT22;1936;47.074;15.336;2023-06-19T10:05:00;39.40;30.00
3842;DHT22;1936;47.074;15.336;2023-06-19T10:07:04;39.80;32.50
3842;DHT22;1936;47.074;15.336;2023-06-19T10:09:18;39.40;28.60
3842;DHT22;1936;47.074;15.336;2023-06-19T10:11:23;39.80;33.20
3842;DHT22;1936;47.074;15.336;2023-06-19T10:13:35;39.60;33.10
3842;DHT22;1936;47.074;15.336;2023-06-19T10:15:41;39.90;29.70
3842;DHT22;1936;47.074;15.336;2023-06-19T10:17:47;39.90;33.00
3842;DHT22;1936;47.074;15.336;2023-06-19T10:19:51;40.10;30.50
3842;DHT22;1936;47.074;15.336;2023-06-19T10:21:55;40.10;33.60
3842;DHT22;1936;47.074;15.336;2023-06-19T10:24:02;40.50;31.10
3842;DHT22;1936;47.074;15.336;2023-06-19T10:26:06;40.90;30.50
3842;DHT22;1936;47.074;15.336;2023-06-19T10:28:18;41.30;31.10
3842;DHT22;1936;47.074;15.336;2023-06-19T10:30:23;41.10;29.50
3842;DHT22;1936;47.074;15.336;2023-06-19T10:32:27;40.50;31.20
3842;DHT22;1936;47.074;15.336;2023-06-19T10:34:34;40.30;28.70
3842;DHT22;1936;47.074;15.336;2023-06-19T10:36:38;40.10;32.30
3842;DHT22;1936;47.074;15.336;2023-06-19T10:38:42;39.20;32.30
3842;DHT22;1936;47.074;15.336;2023-06-19T10:40:48;39.80;31.70
3842;DHT22;1936;47.074;15.336;2023-06-19T10:42:52;39.60;32.50
3842;DHT22;1936;47.074;15.336;2023-06-19T10:45:01;39.60;30.50
3842;DHT22;1936;47.074;15.336;2023-06-19T10:47:06;39.10;28.80
3842;DHT22;1936;47.074;15.336;2023-06-19T10:49:10;38.50;29.80
3842;DHT22;1936;47.074;15.336;2023-06-19T10:51:18;39.00;34.80
3842;DHT22;1936;47.074;15.336;2023-06-19T10:53:25;38.50;36.20
3842;DHT22;1936;47.074;15.336;2023-06-19T10:55:29;38.20;31.90
3842;DHT22;1936;47.074;15.336;2023-06-19T10:57:37;38.10;32.70
3842;DHT22;1936;47.074;15.336;2023-06-19T10:59:40;38.30;35.40
3842;DHT22;1936;47.074;15.336;2023-06-19T11:01:45;38.20;32.10
3842;DHT22;1936;47.074;15.336;2023-06-19T11:03:50;38.90;33.00
3842;DHT22;1936;47.074;15.336;2023-06-19T11:05:54;39.00;34.20
3842;DHT22;1936;47.074;15.336;2023-06-19T11:07:58;38.00;33.50
3842;DHT22;1936;47.074;15.336;2023-06-19T11:10:02;37.80;36.40
3842;DHT22;1936;47.074;15.336;2023-06-19T11:12:07;36.90;32.60
3842;DHT22;1936;47.074;15.336;2023-06-19T11:14:11;36.80;34.00
3842;DHT22;1936;47.074;15.336;2023-06-19T11:16:15;36.60;34.80
3842;DHT22;1936;47.074;15.336;2023-06-19T11:18:18;36.20;35.20
3842;DHT22;1936;47.074;15.336;2023-06-19T11:20:23;36.40;34.10
3842;DHT22;1936;47.074;15.336;2023-06-19T11:22:37;36.20;35.80
3842;DHT22;1936;47.074;15.336;2023-06-19T11:24:46;36.80;35.80
3842;DHT22;1936;47.074;15.336;2023-06-19T11:26:50;36.40;35.10
3842;DHT22;1936;47.074;15.336;2023-06-19T11:28:54;36.30;35.20
3842;DHT22;1936;47.074;15.336;2023-06-19T11:30:59;36.60;36.50
3842;DHT22;1936;47.074;15.336;2023-06-19T11:33:03;36.80;33.60
3842;DHT22;1936;47.074;15.336;2023-06-19T11:35:09;36.80;36.10
3842;DHT22;1936;47.074;15.336;2023-06-19T11:37:15;36.60;40.70
3842;DHT22;1936;47.074;15.336;2023-06-19T11:39:20;36.40;37.20
3842;DHT22;1936;47.074;15.336;2023-06-19T11:41:27;36.10;38.60
3842;DHT22;1936;47.074;15.336;2023-06-19T11:43:31;35.90;39.70
3842;DHT22;1936;47.074;15.336;2023-06-19T11:45:45;36.00;39.50
3842;DHT22;1936;47.074;15.336;2023-06-19T11:47:49;36.30;40.30
3842;DHT22;1936;47.074;15.336;2023-06-19T11:49:54;36.20;37.70
3842;DHT22;1936;47.074;15.336;2023-06-19T11:51:57;36.00;36.60
3842;DHT22;1936;47.074;15.336;2023-06-19T11:54:02;36.10;36.50
3842;DHT22;1936;47.074;15.336;2023-06-19T11:56:05;36.00;38.00
3842;DHT22;1936;47.074;15.336;2023-06-19T11:58:09;35.30;35.80
3842;DHT22;1936;47.074;15.336;2023-06-19T12:00:14;34.90;36.60
3842;DHT22;1936;47.074;15.336;2023-06-19T12:02:18;35.20;38.00
3842;DHT22;1936;47.074;15.336;2023-06-19T12:04:21;35.30;43.50
3842;DHT22;1936;47.074;15.336;2023-06-19T12:06:25;35.30;34.60
3842;DHT22;1936;47.074;15.336;2023-06-19T12:08:28;35.40;40.30
3842;DHT22;1936;47.074;15.336;2023-06-19T12:10:34;35.30;35.10
3842;DHT22;1936;47.074;15.336;2023-06-19T12:12:38;35.10;36.20
3842;DHT22;1936;47.074;15.336;2023-06-19T12:14:41;35.00;38.90
3842;DHT22;1936;47.074;15.336;2023-06-19T12:16:45;35.40;36.30
3842;DHT22;1936;47.074;15.336;2023-06-19T12:18:49;35.40;33.70
3842;DHT22;1936;47.074;15.336;2023-06-19T12:20:53;35.50;40.80
3842;DHT22;1936;47.074;15.336;2023-06-19T12:22:56;35.70;39.60
3842;DHT22;1936;47.074;15.336;2023-06-19T12:25:00;35.80;40.90
3842;DHT22;1936;47.074;15.336;2023-06-19T12:27:05;35.50;35.90
3842;DHT22;1936;47.074;15.336;2023-06-19T12:29:08;35.70;35.30
3842;DHT22;1936;47.074;15.336;2023-06-19T12:31:12;36.00;36.70
3842;DHT22;1936;47.074;15.336;2023-06-19T12:33:15;36.30;36.70
3842;DHT22;1936;47.074;15.336;2023-06-19T12:35:19;35.80;33.90
3842;DHT22;1936;47.074;15.336;2023-06-19T12:37:24;35.60;33.60
3842;DHT22;1936;47.074;15.336;2023-06-19T12:39:27;35.80;34.20
3842;DHT22;1936;47.074;15.336;2023-06-19T12:41:30;35.70;33.00
3842;DHT22;1936;47.074;15.336;2023-06-19T12:43:35;35.90;34.30
3842;DHT22;1936;47.074;15.336;2023-06-19T12:45:38;35.70;36.40
3842;DHT22;1936;47.074;15.336;2023-06-19T12:47:43;35.70;36.80
3842;DHT22;1936;47.074;15.336;2023-06-19T12:49:46;35.50;31.70
3842;DHT22;1936;47.074;15.336;2023-06-19T12:51:50;35.60;32.70
3842;DHT22;1936;47.074;15.336;2023-06-19T12:53:54;35.40;32.40
3842;DHT22;1936;47.074;15.336;2023-06-19T12:55:57;35.30;33.10
3842;DHT22;1936;47.074;15.336;2023-06-19T12:58:05;34.60;37.80
3842;DHT22;1936;47.074;15.336;2023-06-19T13:00:12;34.50;33.20
3842;DHT22;1936;47.074;15.336;2023-06-19T13:02:15;34.70;35.90
3842;DHT22;1936;47.074;15.336;2023-06-19T13:04:19;34.40;35.50
3842;DHT22;1936;47.074;15.336;2023-06-19T13:06:22;34.70;34.20
3842;DHT22;1936;47.074;15.336;2023-06-19T13:08:29;34.80;33.80
3842;DHT22;1936;47.074;15.336;2023-06-19T13:10:33;34.60;31.40
3842;DHT22;1936;47.074;15.336;2023-06-19T13:12:36;34.40;35.30
3842;DHT22;1936;47.074;15.336;2023-06-19T13:14:40;34.20;34.60
3842;DHT22;1936;47.074;15.336;2023-06-19T13:16:45;34.70;40.10
3842;DHT22;1936;47.074;15.336;2023-06-19T13:18:49;34.20;35.40
3842;DHT22;1936;47.074;15.336;2023-06-19T13:20:52;34.50;42.60